createdAt,value
2019-02-11T00:01:09.188Z,1.03
2019-02-11T00:03:39.772Z,0.97
2019-02-11T00:06:10.335Z,1.07
2019-02-11T00:08:40.505Z,1.13
2019-02-11T00:11:10.665Z,1.33
2019-02-11T00:13:40.946Z,1.27
2019-02-11T00:16:11.159Z,1.00
2019-02-11T00:18:41.550Z,1.03
2019-02-11T00:21:11.759Z,0.90
2019-02-11T00:23:42.020Z,1.00
2019-02-11T00:26:12.299Z,1.00
2019-02-11T00:28:42.845Z,0.90
2019-02-11T00:31:13.292Z,1.10
2019-02-11T00:33:43.470Z,0.80
2019-02-11T00:36:13.922Z,1.23
2019-02-11T00:38:44.082Z,1.20
2019-02-11T00:41:14.242Z,1.20
2019-02-11T00:43:44.440Z,0.80
2019-02-11T00:46:14.643Z,1.03
2019-02-11T00:48:44.845Z,1.00
2019-02-11T00:51:15.030Z,0.93
2019-02-11T00:53:45.218Z,1.00
2019-02-11T00:56:15.419Z,1.10
2019-02-11T00:58:45.664Z,0.87
2019-02-11T01:01:15.876Z,0.80
2019-02-11T01:03:46.335Z,0.87
2019-02-11T01:06:16.728Z,1.13
2019-02-11T01:08:46.902Z,1.27
2019-02-11T01:11:17.116Z,0.90
2019-02-11T01:13:47.498Z,1.10
2019-02-11T01:16:18.528Z,1.00
2019-02-11T01:18:48.713Z,1.10
2019-02-11T01:21:18.982Z,1.00
2019-02-11T01:23:49.135Z,1.00
2019-02-11T01:26:19.648Z,0.93
2019-02-11T01:28:49.851Z,1.00
2019-02-11T01:31:20.066Z,1.13
2019-02-11T01:33:50.241Z,0.90
2019-02-11T01:36:20.632Z,1.17
2019-02-11T01:38:50.793Z,1.10
2019-02-11T01:41:21.028Z,1.13
2019-02-11T01:43:51.281Z,0.93
2019-02-11T01:46:21.455Z,1.10
2019-02-11T01:48:51.671Z,1.17
2019-02-11T01:51:21.829Z,1.20
2019-02-11T01:53:52.055Z,1.07
2019-02-11T01:56:22.277Z,1.03
2019-02-11T01:58:52.459Z,1.13
2019-02-11T02:01:22.656Z,0.90
2019-02-11T02:03:53.121Z,1.37
2019-02-11T02:06:23.462Z,1.10
2019-02-11T02:08:54.593Z,1.17
2019-02-11T02:11:25.671Z,1.37
2019-02-11T02:13:56.670Z,1.13
2019-02-11T02:16:26.942Z,1.50
2019-02-11T02:18:57.374Z,1.00
2019-02-11T02:21:27.573Z,1.40
2019-02-11T02:23:57.780Z,1.17
2019-02-11T02:26:28.076Z,1.40
2019-02-11T02:28:58.271Z,0.90
2019-02-11T02:31:28.487Z,1.20
2019-02-11T02:33:58.653Z,1.10
2019-02-11T02:36:28.973Z,1.03
2019-02-11T02:38:59.200Z,1.80
2019-02-11T02:41:29.357Z,1.10
2019-02-11T02:43:59.833Z,1.00
2019-02-11T02:46:30.067Z,1.00
2019-02-11T02:49:00.225Z,1.30
2019-02-11T02:51:31.391Z,1.20
2019-02-11T02:54:01.560Z,1.00
2019-02-11T02:56:31.769Z,1.00
2019-02-11T02:59:01.955Z,1.10
2019-02-11T03:01:33.226Z,1.30
2019-02-11T03:04:03.682Z,1.10
2019-02-11T03:06:34.398Z,1.37
2019-02-11T03:09:05.286Z,1.10
2019-02-11T03:11:35.817Z,1.43
2019-02-11T03:14:06.439Z,0.93
2019-02-11T03:16:36.692Z,1.07
2019-02-11T03:19:06.904Z,1.50
2019-02-11T03:21:37.093Z,1.60
2019-02-11T03:24:07.406Z,1.50
2019-02-11T03:26:38.358Z,1.37
2019-02-11T03:29:08.542Z,1.23
2019-02-11T03:31:38.981Z,1.20
2019-02-11T03:34:09.232Z,1.50
2019-02-11T03:36:39.430Z,1.33
2019-02-11T03:39:09.775Z,1.43
2019-02-11T03:41:39.940Z,1.50
2019-02-11T03:44:15.055Z,1.60
2019-02-11T03:46:42.051Z,1.80
2019-02-11T03:49:12.220Z,1.70
2019-02-11T03:51:42.396Z,1.70
2019-02-11T03:54:12.733Z,1.43
2019-02-11T03:56:43.030Z,1.80
2019-02-11T03:59:13.254Z,1.60
2019-02-11T04:01:43.436Z,1.80
2019-02-11T04:04:14.609Z,1.70
2019-02-11T04:06:44.931Z,1.60
2019-02-11T04:09:15.280Z,1.73
2019-02-11T04:11:45.454Z,1.40
2019-02-11T04:14:24.136Z,1.70
2019-02-11T04:16:47.508Z,1.90
2019-02-11T04:19:17.731Z,2.50
2019-02-11T04:21:47.920Z,2.57
2019-02-11T04:24:18.174Z,2.13
2019-02-11T04:26:48.322Z,1.90
2019-02-11T04:29:18.520Z,2.80
2019-02-11T04:31:48.723Z,3.17
2019-02-11T04:34:18.935Z,2.23
2019-02-11T04:36:49.498Z,2.13
2019-02-11T04:39:19.722Z,2.90
2019-02-11T04:41:50.076Z,2.23
2019-02-11T04:44:20.238Z,2.97
2019-02-11T04:46:50.682Z,2.60
2019-02-11T04:49:20.893Z,2.53
2019-02-11T04:51:51.143Z,3.10
2019-02-11T04:54:21.284Z,2.60
2019-02-11T04:56:51.519Z,2.97
2019-02-11T04:59:21.715Z,2.50
2019-02-11T05:01:51.938Z,2.80
2019-02-11T05:04:22.231Z,3.00
2019-02-11T05:06:52.488Z,3.33
2019-02-11T05:09:22.706Z,2.50
2019-02-11T05:11:53.696Z,2.53
2019-02-11T05:14:23.910Z,2.23
2019-02-11T05:16:54.085Z,2.77
2019-02-11T05:19:24.270Z,2.97
2019-02-11T05:21:54.531Z,3.50
2019-02-11T05:24:24.738Z,3.20
2019-02-11T05:26:54.973Z,3.27
2019-02-11T05:29:25.241Z,3.37
2019-02-11T05:31:55.485Z,3.40
2019-02-11T05:34:25.848Z,2.30
2019-02-11T05:36:56.237Z,3.00
2019-02-11T05:39:26.398Z,2.87
2019-02-11T05:41:56.613Z,3.60
2019-02-11T05:44:26.848Z,3.90
2019-02-11T05:46:57.039Z,3.70
2019-02-11T05:49:28.234Z,3.77
2019-02-11T05:52:00.452Z,4.53
2019-02-11T05:54:31.623Z,4.30
2019-02-11T05:57:02.117Z,3.60
2019-02-11T05:59:32.540Z,3.80
2019-02-11T06:02:03.080Z,3.87
2019-02-11T06:04:33.629Z,3.80
2019-02-11T06:07:03.858Z,3.77
2019-02-11T06:09:34.026Z,3.73
2019-02-11T06:12:04.292Z,3.00
2019-02-11T06:14:36.065Z,3.80
2019-02-11T06:17:06.541Z,3.70
2019-02-11T06:19:36.783Z,3.90
2019-02-11T06:22:06.947Z,3.73
2019-02-11T06:24:37.159Z,3.93
2019-02-11T06:27:07.900Z,3.90
2019-02-11T06:29:38.107Z,4.17
2019-02-11T06:32:08.315Z,4.47
2019-02-11T06:34:38.565Z,4.77
2019-02-11T06:37:08.864Z,4.23
2019-02-11T06:39:39.138Z,4.50
2019-02-11T06:42:10.540Z,4.00
2019-02-11T06:44:40.895Z,4.43
2019-02-11T06:47:11.121Z,4.30
2019-02-11T06:49:41.303Z,4.43
2019-02-11T06:52:12.647Z,4.17
2019-02-11T06:54:42.832Z,4.33
2019-02-11T06:57:13.106Z,4.30
2019-02-11T06:59:43.322Z,4.40
2019-02-11T07:02:13.519Z,5.80
2019-02-11T07:04:43.973Z,4.20
2019-02-11T07:07:14.750Z,4.23
2019-02-11T07:09:52.608Z,5.77
2019-02-11T07:12:30.199Z,4.87
2019-02-11T07:15:10.783Z,4.93
2019-02-11T07:17:43.042Z,4.87
2019-02-11T07:20:13.221Z,3.83
2019-02-11T07:22:43.421Z,5.13
2019-02-11T07:25:13.701Z,4.53
2019-02-11T07:27:44.026Z,3.97
2019-02-11T07:30:14.452Z,4.13
2019-02-11T07:32:44.657Z,3.63
2019-02-11T07:35:15.398Z,4.73
2019-02-11T07:37:45.700Z,4.90
2019-02-11T07:40:16.309Z,5.03
2019-02-11T07:42:59.632Z,4.53
2019-02-11T07:45:52.128Z,4.70
2019-02-11T07:48:23.042Z,4.60
2019-02-11T07:50:53.431Z,5.10
2019-02-11T07:53:23.609Z,5.17
2019-02-11T07:55:53.850Z,5.13
2019-02-11T07:58:24.190Z,5.50
2019-02-11T08:00:56.155Z,4.97
2019-02-11T08:03:27.087Z,5.33
2019-02-11T08:05:57.505Z,4.73
2019-02-11T08:08:27.707Z,4.87
2019-02-11T08:10:58.366Z,5.33
2019-02-11T08:13:28.595Z,5.70
2019-02-11T08:15:58.935Z,5.13
2019-02-11T08:18:29.094Z,5.00
2019-02-11T08:20:59.608Z,4.50
2019-02-11T08:23:29.943Z,4.47
2019-02-11T08:26:00.222Z,7.27
2019-02-11T08:28:30.827Z,4.70
2019-02-11T08:31:01.038Z,4.47
2019-02-11T08:33:31.195Z,4.77
2019-02-11T08:36:01.518Z,4.13
2019-02-11T08:38:31.935Z,5.30
2019-02-11T08:41:02.235Z,4.03
2019-02-11T08:43:32.442Z,4.47
2019-02-11T08:46:02.626Z,4.07
2019-02-11T08:48:32.828Z,4.10
2019-02-11T08:51:03.136Z,3.90
2019-02-11T08:53:33.697Z,4.47
2019-02-11T08:56:04.102Z,4.47
2019-02-11T08:58:34.371Z,4.07
2019-02-11T09:01:04.661Z,4.13
2019-02-11T09:03:34.985Z,3.70
2019-02-11T09:06:06.845Z,3.30
2019-02-11T09:08:39.433Z,3.73
2019-02-11T09:11:09.580Z,3.40
2019-02-11T09:13:40.335Z,3.50
2019-02-11T09:16:11.526Z,3.10
2019-02-11T09:18:41.791Z,3.13
2019-02-11T09:21:12.098Z,3.83
2019-02-11T09:23:42.341Z,3.77
2019-02-11T09:26:13.258Z,3.30
2019-02-11T09:28:43.585Z,3.80
2019-02-11T09:31:13.926Z,3.90
2019-02-11T09:33:46.236Z,3.10
2019-02-11T09:36:18.049Z,3.73
2019-02-11T09:38:48.539Z,3.23
2019-02-11T09:41:18.948Z,3.37
2019-02-11T09:43:49.272Z,3.63
2019-02-11T09:46:21.063Z,3.03
2019-02-11T09:48:51.610Z,3.50
2019-02-11T09:51:23.169Z,3.97
2019-02-11T09:53:53.436Z,3.53
2019-02-11T09:56:23.749Z,3.23
2019-02-11T09:58:54.232Z,3.93
2019-02-11T10:01:27.720Z,3.03
2019-02-11T10:03:58.122Z,3.30
2019-02-11T10:06:28.537Z,2.57
2019-02-11T10:08:58.965Z,2.87
2019-02-11T10:11:29.248Z,2.30
2019-02-11T10:14:02.990Z,2.67
2019-02-11T10:16:33.181Z,2.53
2019-02-11T10:19:35.863Z,3.00
2019-02-11T10:22:06.331Z,2.27
2019-02-11T10:24:36.877Z,2.40
2019-02-11T10:27:07.329Z,1.97
2019-02-11T10:29:37.751Z,3.00
2019-02-11T10:32:08.015Z,2.50
2019-02-11T10:34:39.103Z,3.20
2019-02-11T10:37:20.102Z,2.60
2019-02-11T10:39:50.570Z,2.23
2019-02-11T10:42:22.433Z,2.53
2019-02-11T10:44:53.375Z,2.70
2019-02-11T10:47:23.710Z,2.23
2019-02-11T10:49:53.987Z,2.33
2019-02-11T10:52:24.561Z,2.17
2019-02-11T10:54:54.754Z,2.33
2019-02-11T10:57:25.087Z,2.00
2019-02-11T10:59:59.998Z,2.33
2019-02-11T11:02:31.371Z,2.20
2019-02-11T11:05:01.723Z,2.43
2019-02-11T11:07:32.261Z,1.93
2019-02-11T11:10:05.479Z,1.70
2019-02-11T11:12:37.288Z,2.33
2019-02-11T11:15:08.651Z,2.00
2019-02-11T11:17:39.236Z,2.10
2019-02-11T11:20:10.433Z,2.97
2019-02-11T11:22:41.289Z,1.90
2019-02-11T11:25:12.296Z,1.83
2019-02-11T11:27:43.400Z,2.10
2019-02-11T11:30:16.227Z,2.30
2019-02-11T11:32:47.109Z,2.00
2019-02-11T11:35:17.975Z,2.40
2019-02-11T11:37:48.431Z,2.50
2019-02-11T11:40:19.179Z,2.70
2019-02-11T11:42:49.468Z,2.30
2019-02-11T11:45:25.104Z,3.47
2019-02-11T11:47:55.381Z,2.50
2019-02-11T11:50:25.731Z,2.07
2019-02-11T11:52:55.926Z,2.00
2019-02-11T11:55:29.229Z,2.67
2019-02-11T11:57:59.570Z,2.40
2019-02-11T12:00:32.344Z,2.30
2019-02-11T12:03:05.152Z,2.23
2019-02-11T12:05:38.719Z,2.77
2019-02-11T12:08:11.834Z,2.47
2019-02-11T12:10:42.485Z,2.93
2019-02-11T12:13:22.694Z,2.77
2019-02-11T12:15:44.773Z,2.90
2019-02-11T12:18:15.030Z,2.00
2019-02-11T12:20:45.352Z,2.87
2019-02-11T12:23:15.699Z,2.20
2019-02-11T12:25:49.475Z,2.50
2019-02-11T12:28:20.073Z,2.63
2019-02-11T12:30:53.461Z,2.60
2019-02-11T12:33:22.649Z,2.83
2019-02-11T12:35:53.675Z,4.07
2019-02-11T12:38:23.920Z,4.67
2019-02-11T12:40:54.428Z,3.40
2019-02-11T12:43:24.627Z,2.27
2019-02-11T12:45:54.808Z,3.43
2019-02-11T12:48:24.973Z,3.43
2019-02-11T12:50:55.278Z,2.80
2019-02-11T12:53:25.714Z,2.20
2019-02-11T12:55:55.884Z,3.10
2019-02-11T12:58:26.105Z,2.93
2019-02-11T13:00:56.503Z,3.07
2019-02-11T13:03:26.797Z,3.17
2019-02-11T13:05:57.049Z,3.03
2019-02-11T13:08:27.340Z,2.77
2019-02-11T13:10:59.045Z,2.73
2019-02-11T13:13:29.254Z,3.10
2019-02-11T13:16:02.372Z,2.97
2019-02-11T13:18:32.656Z,3.23
2019-02-11T13:21:03.051Z,3.07
2019-02-11T13:23:33.395Z,3.30
2019-02-11T13:26:03.817Z,2.97
2019-02-11T13:28:34.553Z,3.03
2019-02-11T13:31:04.885Z,2.80
2019-02-11T13:33:38.299Z,2.93
2019-02-11T13:36:09.234Z,2.63
2019-02-11T13:38:39.476Z,2.93
2019-02-11T13:41:11.950Z,3.50
2019-02-11T13:43:50.860Z,4.17
2019-02-11T13:46:21.236Z,2.87
2019-02-11T13:48:52.937Z,3.33
2019-02-11T13:51:23.745Z,3.00
2019-02-11T13:53:54.428Z,3.30
2019-02-11T13:56:25.314Z,3.00
2019-02-11T13:58:55.621Z,3.37
2019-02-11T14:01:26.074Z,3.43
2019-02-11T14:03:56.300Z,3.00
2019-02-11T14:06:26.577Z,3.07
2019-02-11T14:08:57.153Z,3.17
2019-02-11T14:11:27.504Z,3.67
2019-02-11T14:14:04.346Z,3.50
2019-02-11T14:16:35.225Z,3.27
2019-02-11T14:19:07.236Z,4.03
2019-02-11T14:21:37.684Z,3.10
2019-02-11T14:24:08.295Z,4.17
2019-02-11T14:26:38.546Z,3.57
2019-02-11T14:29:08.987Z,3.97
2019-02-11T14:31:39.797Z,2.80
2019-02-11T14:34:11.417Z,2.97
2019-02-11T14:36:43.610Z,3.17
2019-02-11T14:39:14.757Z,2.80
2019-02-11T14:41:47.298Z,2.83
2019-02-11T14:44:19.291Z,3.77
2019-02-11T14:46:51.286Z,2.87
2019-02-11T14:49:21.963Z,2.50
2019-02-11T14:51:52.443Z,2.37
2019-02-11T14:54:22.975Z,3.20
2019-02-11T14:56:55.255Z,3.53
2019-02-11T14:59:25.704Z,3.10
2019-02-11T15:02:07.137Z,2.90
2019-02-11T15:04:37.634Z,3.00
2019-02-11T15:07:07.875Z,3.30
2019-02-11T15:09:38.529Z,3.33
2019-02-11T15:12:10.520Z,3.83
2019-02-11T15:14:40.742Z,2.57
2019-02-11T15:17:11.312Z,2.40
2019-02-11T15:19:47.819Z,3.50
2019-02-11T15:22:18.176Z,3.80
2019-02-11T15:24:51.550Z,2.83
2019-02-11T15:27:24.286Z,3.23
2019-02-11T15:29:54.679Z,3.57
2019-02-11T15:32:27.515Z,3.13
2019-02-11T15:34:58.485Z,3.43
2019-02-11T15:37:31.133Z,3.30
2019-02-11T15:40:01.524Z,3.50
2019-02-11T15:42:33.981Z,3.70
2019-02-11T15:45:05.117Z,3.43
2019-02-11T15:47:36.719Z,3.30
2019-02-11T15:50:08.526Z,3.73
2019-02-11T15:52:38.737Z,2.90
2019-02-11T15:55:12.262Z,3.10
2019-02-11T15:57:42.623Z,3.70
2019-02-11T16:00:15.007Z,3.40
2019-02-11T16:02:45.204Z,3.27
2019-02-11T16:05:16.699Z,3.30
2019-02-11T16:07:47.634Z,3.77
2019-02-11T16:10:20.248Z,3.37
2019-02-11T16:12:50.628Z,3.10
2019-02-11T16:15:20.867Z,3.93
2019-02-11T16:17:51.273Z,2.97
2019-02-11T16:20:21.600Z,5.07
2019-02-11T16:22:53.496Z,3.27
2019-02-11T16:25:23.756Z,2.97
2019-02-11T16:27:57.915Z,3.57
2019-02-11T16:30:28.541Z,3.23
2019-02-11T16:32:59.051Z,3.60
2019-02-11T16:35:29.710Z,3.67
2019-02-11T16:38:00.298Z,3.00
2019-02-11T16:40:30.694Z,2.80
2019-02-11T16:43:02.479Z,2.97
2019-02-11T16:45:32.854Z,2.37
2019-02-11T16:48:04.977Z,2.00
2019-02-11T16:50:35.524Z,2.30
2019-02-11T16:53:06.218Z,1.87
2019-02-11T16:55:36.488Z,2.30
2019-02-11T16:58:06.769Z,2.10
2019-02-11T17:00:37.393Z,1.90
2019-02-11T17:03:07.761Z,2.13
2019-02-11T17:05:38.050Z,2.07
2019-02-11T17:08:08.274Z,1.93
2019-02-11T17:10:38.722Z,2.37
2019-02-11T17:13:09.306Z,2.03
2019-02-11T17:15:39.739Z,2.03
2019-02-11T17:18:10.058Z,2.30
2019-02-11T17:20:40.318Z,2.07
2019-02-11T17:23:10.532Z,2.47
2019-02-11T17:25:40.828Z,2.10
2019-02-11T17:28:11.351Z,2.00
2019-02-11T17:30:41.930Z,1.93
2019-02-11T17:33:12.165Z,2.20
2019-02-11T17:35:42.544Z,1.97
2019-02-11T17:38:12.817Z,3.43
2019-02-11T17:40:43.097Z,2.30
2019-02-11T17:43:13.593Z,2.23
2019-02-11T17:45:44.031Z,2.23
2019-02-11T17:48:16.344Z,2.17
2019-02-11T17:50:47.791Z,2.70
2019-02-11T17:53:18.440Z,2.60
2019-02-11T17:55:48.740Z,3.37
2019-02-11T17:58:18.994Z,1.60
2019-02-11T18:00:53.515Z,2.20
2019-02-11T18:03:23.805Z,2.97
2019-02-11T18:05:54.088Z,2.47
2019-02-11T18:08:24.328Z,2.50
2019-02-11T18:10:54.823Z,2.23
2019-02-11T18:13:25.231Z,2.40
2019-02-11T18:15:55.455Z,2.60
2019-02-11T18:18:25.912Z,3.03
2019-02-11T18:20:56.156Z,3.23
2019-02-11T18:23:26.411Z,3.53
2019-02-11T18:25:56.685Z,2.37
2019-02-11T18:28:26.989Z,2.67
2019-02-11T18:30:57.209Z,2.90
2019-02-11T18:33:27.639Z,3.57
2019-02-11T18:35:58.829Z,3.83
2019-02-11T18:38:29.190Z,3.00
2019-02-11T18:40:59.406Z,3.43
2019-02-11T18:43:29.834Z,3.43
2019-02-11T18:46:00.135Z,3.57
2019-02-11T18:48:30.335Z,3.93
2019-02-11T18:51:00.799Z,3.87
2019-02-11T18:53:31.068Z,3.23
2019-02-11T18:56:01.316Z,3.20
2019-02-11T18:58:31.870Z,3.17
2019-02-11T19:01:02.096Z,3.97
2019-02-11T19:03:32.389Z,2.80
2019-02-11T19:06:03.654Z,3.97
2019-02-11T19:08:33.874Z,3.93
2019-02-11T19:11:04.430Z,3.10
2019-02-11T19:13:34.839Z,4.50
2019-02-11T19:16:05.130Z,3.57
2019-02-11T19:18:35.389Z,3.50
2019-02-11T19:21:05.781Z,3.00
2019-02-11T19:23:36.188Z,3.60
2019-02-11T19:26:06.510Z,3.97
2019-02-11T19:28:36.725Z,3.33
2019-02-11T19:31:06.938Z,3.03
2019-02-11T19:33:37.172Z,3.70
2019-02-11T19:36:07.470Z,3.90
2019-02-11T19:38:37.919Z,3.80
2019-02-11T19:41:08.148Z,3.30
2019-02-11T19:43:38.574Z,4.17
2019-02-11T19:46:09.845Z,4.00
2019-02-11T19:48:40.388Z,3.20
2019-02-11T19:51:10.690Z,4.20
2019-02-11T19:53:41.060Z,3.23
2019-02-11T19:56:11.257Z,3.70
2019-02-11T19:58:41.501Z,3.50
2019-02-11T20:01:11.818Z,3.77
2019-02-11T20:03:42.124Z,3.77
2019-02-11T20:06:12.345Z,4.13
2019-02-11T20:08:42.822Z,4.27
2019-02-11T20:11:13.159Z,3.87
2019-02-11T20:13:43.709Z,3.87
2019-02-11T20:16:13.941Z,3.97
2019-02-11T20:18:44.236Z,3.80
2019-02-11T20:21:14.518Z,3.27
2019-02-11T20:23:44.892Z,3.83
2019-02-11T20:26:15.076Z,3.70
2019-02-11T20:28:45.353Z,4.50
2019-02-11T20:31:15.590Z,4.30
2019-02-11T20:33:45.780Z,3.67
2019-02-11T20:36:16.043Z,3.90
2019-02-11T20:38:46.301Z,3.67
2019-02-11T20:41:16.565Z,4.20
2019-02-11T20:43:47.109Z,3.93
2019-02-11T20:46:17.344Z,4.00
2019-02-11T20:48:47.582Z,3.93
2019-02-11T20:51:17.873Z,3.63
2019-02-11T20:53:49.108Z,3.40
2019-02-11T20:56:19.347Z,4.47
2019-02-11T20:58:49.546Z,3.20
2019-02-11T21:01:19.972Z,4.30
2019-02-11T21:03:50.187Z,3.57
2019-02-11T21:06:20.446Z,3.40
2019-02-11T21:08:50.696Z,4.53
2019-02-11T21:11:21.089Z,3.30
2019-02-11T21:13:51.523Z,4.33
2019-02-11T21:16:21.781Z,4.67
2019-02-11T21:18:52.212Z,3.63
2019-02-11T21:21:22.432Z,3.83
2019-02-11T21:23:52.594Z,2.97
2019-02-11T21:26:22.928Z,3.20
2019-02-11T21:28:53.135Z,3.90
2019-02-11T21:31:23.342Z,3.10
2019-02-11T21:33:53.748Z,3.77
2019-02-11T21:36:24.012Z,3.53
2019-02-11T21:38:54.219Z,4.07
2019-02-11T21:41:24.422Z,3.27
2019-02-11T21:43:54.723Z,3.10
2019-02-11T21:46:24.934Z,3.60
2019-02-11T21:49:05.456Z,3.80
2019-02-11T21:51:37.754Z,3.70
2019-02-11T21:54:07.943Z,3.53
2019-02-11T21:56:38.174Z,3.37
2019-02-11T21:59:08.404Z,3.23
2019-02-11T22:01:38.583Z,3.23
2019-02-11T22:04:08.855Z,3.20
2019-02-11T22:06:39.055Z,3.90
2019-02-11T22:09:09.245Z,3.47
2019-02-11T22:11:39.808Z,3.57
2019-02-11T22:14:10.157Z,5.07
2019-02-11T22:16:40.383Z,3.23
2019-02-11T22:19:10.622Z,3.77
2019-02-11T22:21:40.888Z,3.30
2019-02-11T22:24:11.101Z,3.83
2019-02-11T22:26:41.350Z,4.50
2019-02-11T22:29:11.571Z,3.47
2019-02-11T22:31:41.917Z,3.47
2019-02-11T22:34:12.192Z,3.00
2019-02-11T22:36:42.395Z,2.47
2019-02-11T22:39:12.622Z,3.60
2019-02-11T22:41:42.856Z,4.30
2019-02-11T22:44:13.265Z,4.13
2019-02-11T22:46:43.570Z,3.33
2019-02-11T22:49:13.930Z,3.30
2019-02-11T22:51:44.122Z,3.63
2019-02-11T22:54:14.398Z,3.00
2019-02-11T22:56:44.624Z,3.70
2019-02-11T22:59:14.864Z,3.47
2019-02-11T23:01:45.082Z,3.80
2019-02-11T23:04:15.347Z,4.30
2019-02-11T23:06:45.540Z,4.40
2019-02-11T23:09:15.793Z,3.93
2019-02-11T23:11:46.261Z,4.30
2019-02-11T23:14:16.486Z,3.47
2019-02-11T23:16:46.762Z,3.33
2019-02-11T23:19:17.051Z,3.57
2019-02-11T23:21:47.247Z,4.03
2019-02-11T23:24:17.664Z,3.33
2019-02-11T23:26:47.863Z,3.20
2019-02-11T23:29:18.191Z,3.57
2019-02-11T23:31:48.509Z,3.07
2019-02-11T23:34:18.730Z,3.50
2019-02-11T23:36:48.952Z,3.20
2019-02-11T23:39:19.265Z,3.40
2019-02-11T23:41:49.493Z,3.03
2019-02-11T23:44:20.072Z,3.07
2019-02-11T23:46:50.273Z,2.73
2019-02-11T23:49:20.492Z,2.97
2019-02-11T23:51:50.719Z,3.73
2019-02-11T23:54:20.954Z,3.23
2019-02-11T23:56:51.190Z,3.17
2019-02-11T23:59:21.393Z,3.20
